Sedgwick Reserve, California Weather observations

Data are for 10 minute period ending at time listed.
 Day   Time   Solar   Ave.   Ave.  Ave.  Vector  Max.   Baro.   Total    
  of    of     Rad.   Air    Rel.  Wind   Wind   Wind  Press.  Precip.   
Year   Day            Temp.  Hum.  Speed  Dir.   Gust                    
2016   (PST)  Kw/m2    F      %     mph   deg.    mph    mb.     in.     
-------------------------------------------------------------------------
 125   16:50   0.35   66.5    52    5.6   230    10.2   969.6    0.00 
 125   17:00   0.32   65.7    54    5.5   219    10.9   969.5    0.00 
 125   17:10   0.26   65.3    55    6.6   229    11.5   969.4    0.00 
 125   17:20   0.23   64.8    55    7.6   246    13.2   969.4    0.00 
 125   17:30   0.21   64.3    56    6.0   219    11.0   969.2    0.00 
 125   17:40   0.12   64.1    57    5.6   224     9.4   969.2    0.00 
 125   17:50   0.13   64.5    56    5.4   263     9.8   969.2    0.00 
 125   18:00   0.09   62.5    59    8.2   307    14.0   969.2    0.00 
 125   18:10   0.06   61.1    61    8.8   309    14.5   969.2    0.00 
 125   18:20   0.02   59.8    63    8.4   297    12.5   969.2    0.00 
 125   18:30   0.01   59.0    64    8.0   282    13.2   969.3    0.00 
 125   18:40   0.01   58.5    66    7.0   298    11.6   969.5    0.00 
 125   18:50   0.00   57.8    69    6.5   302     9.5   969.6    0.00 
 125   19:00   0.00   57.3    70    6.0   303    10.7   969.7    0.00 
 125   19:10   0.00   57.0    72    6.2   308    10.7   969.8    0.00 
 125   19:20   0.00   56.8    72    5.1   296     9.5   969.9    0.00 
 125   19:30   0.00   56.3    74    6.3   298    11.2   970.0    0.00 
 125   19:40   0.00   55.9    75    5.7   282    10.6   970.1    0.00 
 125   19:50   0.00   55.7    76    5.0   283     8.5   970.2    0.00 
 125   20:00   0.00   55.5    76    4.6   299     8.3   970.3    0.00 
 125   20:10   0.00   55.2    78    7.2   278    11.5   970.4    0.00 
 125   20:20   0.00   54.9    79    4.7   291     8.0   970.5    0.00 
 125   20:30   0.00   55.0    79    3.7   277     6.0   970.6    0.00 
 125   20:40   0.00   54.9    79    3.0   283     4.9   970.5    0.00 
 125   20:50   0.00   54.8    79    3.5   274     5.8   970.6    0.00 
 125   21:00   0.00   54.9    78    3.7   276     5.2   970.7    0.00 
 125   21:10   0.00   54.9    79    2.9   274     5.2   970.6    0.00 
 125   21:20   0.00   54.8    79    4.4   269     7.1   970.7    0.00 
 125   21:30   0.00   54.6    80    3.6   264     5.4   970.8    0.00 
 125   21:40   0.00   54.6    80    2.6   270     4.7   970.7    0.00 
 125   21:50   0.00   54.7    80    2.0   262     3.8   970.7    0.00 
 125   22:00   0.00   54.7    80    1.5   245     3.0   970.7    0.00 
 125   22:10   0.00   54.7    80    2.5   224     4.1   970.8    0.00 
 125   22:20   0.00   54.4    80    3.7   253     6.1   970.8    0.00 
 125   22:30   0.00   54.2    81    4.3   262     6.7   970.8    0.00 
 125   22:40   0.00   54.1    81    3.6   265     5.6   970.8    0.00 
 125   22:50   0.00   54.0    81    4.3   264     6.4   970.8    0.00 
 125   23:00   0.00   53.9    82    5.3   264     7.5   970.9    0.00 
 125   23:10   0.00   53.8    82    4.7   274     7.1   970.9    0.00 
 125   23:20   0.00   53.6    82    3.6   277     5.6   970.9    0.00 
 125   23:30   0.00   53.5    83    3.2   275     5.7   970.8    0.00 
 125   23:40   0.00   53.4    84    3.4   272     5.2   970.8    0.00 
 125   23:50   0.00   53.3    84    3.6   273     5.4   970.8    0.00 
 126    0:00   0.00   53.3    84    2.2   282     4.6   970.8    0.00 
 126    0:10   0.00   53.3    84    3.0   295     5.3   970.8    0.00 
 126    0:20   0.00   53.2    84    2.7   284     4.5   970.8    0.00 
 126    0:30   0.00   53.1    85    2.1   283     4.5   970.7    0.00 
 126    0:40   0.00   53.2    84    2.3   307     4.7   970.6    0.00 
 126    0:50   0.00   53.2    84    2.4   269     3.9   970.6    0.00 
 126    1:00   0.00   53.1    83    1.5   280     2.6   970.6    0.00 
 126    1:10   0.00   53.2    83    0.6   310     2.0   970.3    0.00 
 126    1:20   0.00   53.3    82    1.3   292     2.5   970.3    0.00 
 126    1:30   0.00   53.3    82    0.6   336     2.2   970.2    0.00 
 126    1:40   0.00   53.3    82    1.9    16     3.1   970.1    0.00 
 126    1:50   0.00   53.2    82    1.6    17     3.2   969.9    0.00 
 126    2:00   0.00   53.3    82    1.0   261     2.0   969.8    0.00 
 126    2:10   0.00   53.2    82    2.3   235     3.2   969.9    0.00 
 126    2:20   0.00   52.9    82    2.1   236     3.4   970.0    0.00 
 126    2:30   0.00   53.0    82    0.2   232     1.2   969.9    0.00 
 126    2:40   0.00   53.0    82    1.4   222     2.9   969.9    0.00 
 126    2:50   0.00   52.9    82    1.9   250     3.0   969.9    0.00 
 126    3:00   0.00   53.2    82    0.5   273     1.4   969.8    0.00 
 126    3:10   0.00   53.3    81    1.6   255     2.3   969.8    0.00 
 126    3:20   0.00   53.3    81    1.2   270     2.8   969.9    0.00 
 126    3:30   0.00   53.2    81    1.7   274     3.1   969.8    0.00 
 126    3:40   0.00   53.2    81    1.4   292     3.0   969.8    0.00 
 126    3:50   0.00   53.0    81    1.5   300     2.5   969.7    0.00 
 126    4:00   0.00   52.5    82    1.2    20     1.9   969.6    0.00 
 126    4:10   0.00   52.0    84    0.9   339     2.3   969.5    0.00 
 126    4:20   0.00   51.1    84    0.0   288     0.7   969.6    0.00 
 126    4:30   0.00   50.3    86    0.2   202     2.2   969.6    0.00 
 126    4:40   0.00   49.3    86    1.2   242     2.0   969.7    0.00 
 126    4:50   0.00   49.0    88    0.4   283     2.1   969.7    0.00 
 126    5:00   0.00   48.4    90    3.3    10     4.4   969.7    0.00 
 126    5:10   0.00   47.8    92    3.5     9     4.7   969.7    0.00 
 126    5:20   0.01   48.1    92    0.5    20     2.4   969.8    0.00 
 126    5:30   0.01   47.9    91    0.4   274     1.3   969.8    0.00 
 126    5:40   0.02   47.7    91    1.6    10     3.4   969.7    0.00 
 126    5:50   0.03   47.8    92    2.6     1     3.3   969.7    0.00 
 126    6:00   0.05   47.8    91    0.9   311     2.3   969.8    0.00 
 126    6:10   0.08   48.4    91    1.2   277     2.8   969.8    0.00 
 126    6:20   0.08   49.3    90    1.0   271     2.5   969.8    0.00 
 126    6:30   0.08   50.3    89    0.9   295     1.9   969.9    0.00 
 126    6:40   0.09   51.3    87    0.8   337     1.8   969.9    0.00 
 126    6:50   0.11   52.3    86    0.0     1     0.8   970.1    0.00 
 126    7:00   0.13   53.9    84    0.2    58     1.2   970.0    0.00 
 126    7:10   0.29   55.3    80    1.0    56     2.3   970.0    0.00 
 126    7:20   0.21   56.8    76    1.4    91     2.5   969.9    0.00 
 126    7:30   0.26   57.0    75    1.3    66     2.8   969.8    0.00 
 126    7:40   0.32   58.4    71    1.1    69     2.5   969.7    0.00 
 126    7:50   0.48   61.4    65    1.7   114     5.8   969.5    0.00 
 126    8:00   0.47   61.4    61    3.9   151     8.6   969.6    0.00 
 126    8:10   0.54   61.5    60    4.9   142    10.5   969.7    0.00 
 126    8:20   0.35   60.5    61    6.1   136    11.9   969.8    0.00 
 126    8:30   0.51   61.0    57    7.6   132    13.2   969.8    0.00 
 126    8:40   0.75   63.9    53    7.3   112    13.0   969.9    0.00 
 126    8:50   0.56   64.3    52    7.6   139    14.5   969.9    0.00 
 126    9:00   0.50   62.6    54    7.4   144    12.9   969.9    0.00 
 126    9:10   0.40   62.3    54    7.2   130    11.6   969.9    0.00 
 126    9:20   0.50   64.0    51    7.3   118    12.4   969.8    0.00 
 126    9:30   0.40   62.8    52    4.8   148    12.6   969.8    0.00 
 126    9:40   0.40   64.3    50    2.9   178     6.9   969.8    0.00 
 126    9:50   0.37   63.6    50    6.8   151    12.8   969.8    0.00 
 126   10:00   0.53   63.5    52    7.5   184    12.7   969.9    0.00 
 126   10:10   0.43   63.4    52    7.1   203    13.2   970.0    0.00 
 126   10:20   0.73   63.6    52    7.5   198    14.5   970.0    0.00 
 126   10:30   0.57   65.1    50    5.5   171    11.0   970.0    0.00 
 126   10:40   0.33   63.8    53    6.6   192    11.5   970.1    0.00 
 126   10:50   0.27   63.2    54    6.6   207    13.2   970.1    0.00 
 126   11:00   0.19   62.3    56    9.3   215    14.5   969.9    0.00 
 126   11:10   0.15   62.8    54    7.0   167    13.6   969.9    0.00 
 126   11:20   0.16   62.8    54    6.4   158    12.4   969.9    0.00 
 126   11:30   0.16   62.5    55    8.0   180    12.4   969.8    0.00 
 126   11:40   0.12   62.3    55    5.3   172     9.6   969.8    0.00 
 126   11:50   0.10   62.4    54    5.7   188    11.8   969.7    0.00 
 126   12:00   0.10   62.3    54    4.5   204     8.3   969.6    0.00 
 126   12:10   0.08   62.2    54    5.0   203     9.6   969.7    0.00 
 126   12:20   0.07   62.2    54    4.5   176     7.8   969.7    0.00 
 126   12:30   0.07   62.5    54    3.2    86     6.4   969.7    0.00 
 126   12:40   0.06   62.8    53    3.4   126     6.3   969.6    0.00 
 126   12:50   0.07   62.6    54    3.8   124     8.1   969.7    0.00 
 126   13:00   0.09   62.2    56    4.9   114     9.6   969.6    0.00 
 126   13:10   0.10   62.3    55    3.3   113     6.9   969.5    0.00 
 126   13:20   0.11   62.7    54    3.2   166     5.4   969.5    0.00 
 126   13:30   0.11   62.3    56    1.5   150     5.1   969.5    0.00 
 126   13:40   0.17   62.7    55    1.6   286     4.4   969.5    0.00 
 126   13:50   0.15   62.5    55    3.4   255     6.2   969.4    0.00 
 126   14:00   0.14   62.7    54    2.1   288     5.4   969.4    0.00 
 126   14:10   0.14   63.1    53    3.8   242     7.6   969.2    0.00 
 126   14:20   0.08   62.9    54    3.9   201     7.4   969.0    0.00 
 126   14:30   0.07   62.1    60    5.5   137    12.2   969.0    0.01 
 126   14:40   0.05   59.3    69    3.8   120    10.2   968.9    0.00 
 126   14:50   0.05   60.2    62    7.2   210    11.5   968.7    0.00 
 126   15:00   0.06   61.1    59    8.2   206    14.9   968.6    0.00 
 126   15:10   0.08   61.1    59    7.5   209    13.9   968.6    0.00 
 126   15:20   0.07   60.9    58    6.9   232    14.0   968.6    0.00 
 126   15:30   0.04   60.8    58    6.3   231    10.5   968.6    0.00 
 126   15:40   0.03   60.2    64    6.4   270     8.8   968.7    0.00 
 126   15:50   0.03   59.3    69    6.3   272     9.6   968.7    0.00 
 126   16:00   0.04   58.8    72    5.4   296    10.4   968.6    0.00 
 126   16:10   0.07   58.7    73    3.7   311     7.2   968.5    0.00 
 126   16:20   0.07   58.7    74    4.1   297     8.9   968.5    0.00 
 126   16:30   0.07   58.6    74    3.4   277     7.2   968.5    0.00 
 126   16:40   0.07   58.3    75    5.7   320    10.6   968.5    0.00 

Return to Sedgwick Reserve graphs page.


Western Regional Climate Center,wrcc@dri.edu